sensor_id;sensor_type;location;lat;lon;timestamp;temperature;humidity
52867;DHT22;38739;53.324;6.862;2023-07-22T00:02:22;13.30;99.90
52867;DHT22;38739;53.324;6.862;2023-07-22T00:04:49;13.40;99.90
52867;DHT22;38739;53.324;6.862;2023-07-22T00:07:14;13.30;99.90
52867;DHT22;38739;53.324;6.862;2023-07-22T00:09:41;13.40;99.90
52867;DHT22;38739;53.324;6.862;2023-07-22T00:12:07;13.40;99.90
52867;DHT22;38739;53.324;6.862;2023-07-22T00:14:35;13.40;99.90
52867;DHT22;38739;53.324;6.862;2023-07-22T00:17:01;13.40;99.90
52867;DHT22;38739;53.324;6.862;2023-07-22T00:19:27;13.40;99.90
52867;DHT22;38739;53.324;6.862;2023-07-22T00:21:53;13.40;99.90
52867;DHT22;38739;53.324;6.862;2023-07-22T00:24:18;13.40;99.90
52867;DHT22;38739;53.324;6.862;2023-07-22T00:26:44;13.40;99.90
52867;DHT22;38739;53.324;6.862;2023-07-22T00:29:10;13.40;99.90
52867;DHT22;38739;53.324;6.862;2023-07-22T00:31:35;13.40;99.90
52867;DHT22;38739;53.324;6.862;2023-07-22T00:34:01;13.40;99.90
52867;DHT22;38739;53.324;6.862;2023-07-22T00:36:27;13.30;99.90
52867;DHT22;38739;53.324;6.862;2023-07-22T00:38:53;13.30;99.90
52867;DHT22;38739;53.324;6.862;2023-07-22T00:41:18;13.30;99.90
52867;DHT22;38739;53.324;6.862;2023-07-22T00:43:44;13.30;99.90
52867;DHT22;38739;53.324;6.862;2023-07-22T00:46:10;13.20;99.90
52867;DHT22;38739;53.324;6.862;2023-07-22T00:48:36;13.20;99.90
52867;DHT22;38739;53.324;6.862;2023-07-22T00:51:03;13.20;99.90
52867;DHT22;38739;53.324;6.862;2023-07-22T00:53:29;13.10;99.90
52867;DHT22;38739;53.324;6.862;2023-07-22T00:55:54;13.10;99.90
52867;DHT22;38739;53.324;6.862;2023-07-22T00:58:21;13.10;99.90
52867;DHT22;38739;53.324;6.862;2023-07-22T01:00:47;13.10;99.90
52867;DHT22;38739;53.324;6.862;2023-07-22T01:03:14;13.00;99.90
52867;DHT22;38739;53.324;6.862;2023-07-22T01:05:40;12.90;99.90
52867;DHT22;38739;53.324;6.862;2023-07-22T01:08:07;12.90;99.90
52867;DHT22;38739;53.324;6.862;2023-07-22T01:10:33;12.90;99.90
52867;DHT22;38739;53.324;6.862;2023-07-22T01:12:58;12.90;99.90
52867;DHT22;38739;53.324;6.862;2023-07-22T01:15:24;12.80;99.90
52867;DHT22;38739;53.324;6.862;2023-07-22T01:17:51;12.80;99.90
52867;DHT22;38739;53.324;6.862;2023-07-22T01:20:17;12.80;99.90
52867;DHT22;38739;53.324;6.862;2023-07-22T01:22:53;12.70;99.90
52867;DHT22;38739;53.324;6.862;2023-07-22T01:25:23;12.70;99.90
52867;DHT22;38739;53.324;6.862;2023-07-22T01:27:51;12.60;99.90
52867;DHT22;38739;53.324;6.862;2023-07-22T01:30:17;12.60;99.90
52867;DHT22;38739;53.324;6.862;2023-07-22T01:32:43;12.60;99.90
52867;DHT22;38739;53.324;6.862;2023-07-22T01:35:09;12.50;99.90
52867;DHT22;38739;53.324;6.862;2023-07-22T01:37:35;12.50;99.90
52867;DHT22;38739;53.324;6.862;2023-07-22T01:40:01;12.50;99.90
52867;DHT22;38739;53.324;6.862;2023-07-22T01:42:36;12.40;99.90
52867;DHT22;38739;53.324;6.862;2023-07-22T01:45:02;12.40;99.90
52867;DHT22;38739;53.324;6.862;2023-07-22T01:47:28;12.40;99.90
52867;DHT22;38739;53.324;6.862;2023-07-22T01:49:54;12.40;99.90
52867;DHT22;38739;53.324;6.862;2023-07-22T01:52:19;12.30;99.90
52867;DHT22;38739;53.324;6.862;2023-07-22T01:54:45;12.30;99.90
52867;DHT22;38739;53.324;6.862;2023-07-22T01:57:11;12.40;99.90
52867;DHT22;38739;53.324;6.862;2023-07-22T01:59:36;12.30;99.90
52867;DHT22;38739;53.324;6.862;2023-07-22T02:02:02;12.30;99.90
52867;DHT22;38739;53.324;6.862;2023-07-22T02:04:28;12.30;99.90
52867;DHT22;38739;53.324;6.862;2023-07-22T02:06:53;12.30;99.90
52867;DHT22;38739;53.324;6.862;2023-07-22T02:09:19;12.20;99.90
52867;DHT22;38739;53.324;6.862;2023-07-22T02:11:45;12.20;99.90
52867;DHT22;38739;53.324;6.862;2023-07-22T02:14:10;12.20;99.90
52867;DHT22;38739;53.324;6.862;2023-07-22T02:16:36;12.10;99.90
52867;DHT22;38739;53.324;6.862;2023-07-22T02:19:03;12.10;99.90
52867;DHT22;38739;53.324;6.862;2023-07-22T02:21:28;12.10;99.90
52867;DHT22;38739;53.324;6.862;2023-07-22T02:23:54;12.00;99.90
52867;DHT22;38739;53.324;6.862;2023-07-22T02:26:20;12.00;99.90
52867;DHT22;38739;53.324;6.862;2023-07-22T02:28:46;12.00;99.90
52867;DHT22;38739;53.324;6.862;2023-07-22T02:31:12;12.00;99.90
52867;DHT22;38739;53.324;6.862;2023-07-22T02:33:38;11.90;99.90
52867;DHT22;38739;53.324;6.862;2023-07-22T02:36:04;11.90;99.90
52867;DHT22;38739;53.324;6.862;2023-07-22T02:38:29;11.90;99.90
52867;DHT22;38739;53.324;6.862;2023-07-22T02:41:01;11.80;99.90
52867;DHT22;38739;53.324;6.862;2023-07-22T02:43:27;11.80;99.90
52867;DHT22;38739;53.324;6.862;2023-07-22T02:45:53;11.80;99.90
52867;DHT22;38739;53.324;6.862;2023-07-22T02:48:19;11.80;99.90
52867;DHT22;38739;53.324;6.862;2023-07-22T02:50:45;11.70;99.90
52867;DHT22;38739;53.324;6.862;2023-07-22T02:53:11;11.70;99.90
52867;DHT22;38739;53.324;6.862;2023-07-22T02:55:37;11.70;99.90
52867;DHT22;38739;53.324;6.862;2023-07-22T02:58:02;11.70;99.90
52867;DHT22;38739;53.324;6.862;2023-07-22T03:00:28;11.70;99.90
52867;DHT22;38739;53.324;6.862;2023-07-22T03:02:55;11.70;99.90
52867;DHT22;38739;53.324;6.862;2023-07-22T03:05:27;11.60;99.90
52867;DHT22;38739;53.324;6.862;2023-07-22T03:07:53;11.60;99.90
52867;DHT22;38739;53.324;6.862;2023-07-22T03:10:19;11.60;99.90
52867;DHT22;38739;53.324;6.862;2023-07-22T03:12:45;11.60;99.90
52867;DHT22;38739;53.324;6.862;2023-07-22T03:15:11;11.50;99.90
52867;DHT22;38739;53.324;6.862;2023-07-22T03:17:39;11.40;99.90
52867;DHT22;38739;53.324;6.862;2023-07-22T03:20:05;11.50;99.90
52867;DHT22;38739;53.324;6.862;2023-07-22T03:22:43;11.50;99.90
52867;DHT22;38739;53.324;6.862;2023-07-22T03:25:10;11.50;99.90
52867;DHT22;38739;53.324;6.862;2023-07-22T03:27:36;11.40;99.90
52867;DHT22;38739;53.324;6.862;2023-07-22T03:30:03;11.40;99.90
52867;DHT22;38739;53.324;6.862;2023-07-22T03:32:29;11.40;99.90
52867;DHT22;38739;53.324;6.862;2023-07-22T03:34:55;11.40;99.90
52867;DHT22;38739;53.324;6.862;2023-07-22T03:37:20;11.40;99.90
52867;DHT22;38739;53.324;6.862;2023-07-22T03:39:46;11.40;99.90
52867;DHT22;38739;53.324;6.862;2023-07-22T03:42:12;11.40;99.90
52867;DHT22;38739;53.324;6.862;2023-07-22T03:44:37;11.30;99.90
52867;DHT22;38739;53.324;6.862;2023-07-22T03:47:04;11.40;99.90
52867;DHT22;38739;53.324;6.862;2023-07-22T03:49:29;11.30;99.90
52867;DHT22;38739;53.324;6.862;2023-07-22T03:51:55;11.30;99.90
52867;DHT22;38739;53.324;6.862;2023-07-22T03:54:21;11.30;99.90
52867;DHT22;38739;53.324;6.862;2023-07-22T03:56:46;11.30;99.90
52867;DHT22;38739;53.324;6.862;2023-07-22T03:59:12;11.30;99.90
52867;DHT22;38739;53.324;6.862;2023-07-22T04:01:37;11.30;99.90
52867;DHT22;38739;53.324;6.862;2023-07-22T04:04:04;11.30;99.90
52867;DHT22;38739;53.324;6.862;2023-07-22T04:06:29;11.30;99.90
52867;DHT22;38739;53.324;6.862;2023-07-22T04:08:55;11.40;99.90
52867;DHT22;38739;53.324;6.862;2023-07-22T04:11:22;11.30;99.90
52867;DHT22;38739;53.324;6.862;2023-07-22T04:13:47;11.40;99.90
52867;DHT22;38739;53.324;6.862;2023-07-22T04:16:14;11.40;99.90
52867;DHT22;38739;53.324;6.862;2023-07-22T04:18:40;11.50;99.90
52867;DHT22;38739;53.324;6.862;2023-07-22T04:21:05;11.50;99.90
52867;DHT22;38739;53.324;6.862;2023-07-22T04:23:31;11.50;99.90
52867;DHT22;38739;53.324;6.862;2023-07-22T04:26:01;11.60;99.90
52867;DHT22;38739;53.324;6.862;2023-07-22T04:28:27;11.70;99.90
52867;DHT22;38739;53.324;6.862;2023-07-22T04:30:57;11.70;99.90
52867;DHT22;38739;53.324;6.862;2023-07-22T04:33:24;11.70;99.90
52867;DHT22;38739;53.324;6.862;2023-07-22T04:35:57;11.80;99.90
52867;DHT22;38739;53.324;6.862;2023-07-22T04:38:22;11.80;99.90
52867;DHT22;38739;53.324;6.862;2023-07-22T04:40:48;11.90;99.90
52867;DHT22;38739;53.324;6.862;2023-07-22T04:43:14;12.00;99.90
52867;DHT22;38739;53.324;6.862;2023-07-22T04:45:39;12.00;99.90
52867;DHT22;38739;53.324;6.862;2023-07-22T04:48:06;12.00;99.90
52867;DHT22;38739;53.324;6.862;2023-07-22T04:50:32;12.10;99.90
52867;DHT22;38739;53.324;6.862;2023-07-22T04:52:58;12.20;99.90
52867;DHT22;38739;53.324;6.862;2023-07-22T04:55:24;12.20;99.90
52867;DHT22;38739;53.324;6.862;2023-07-22T04:57:51;12.30;99.90
52867;DHT22;38739;53.324;6.862;2023-07-22T05:00:17;12.30;99.90
52867;DHT22;38739;53.324;6.862;2023-07-22T05:02:46;12.40;99.90
52867;DHT22;38739;53.324;6.862;2023-07-22T05:05:18;12.40;99.90
52867;DHT22;38739;53.324;6.862;2023-07-22T05:07:44;12.50;99.90
52867;DHT22;38739;53.324;6.862;2023-07-22T05:10:11;12.50;99.90
52867;DHT22;38739;53.324;6.862;2023-07-22T05:12:42;12.60;99.90
52867;DHT22;38739;53.324;6.862;2023-07-22T05:15:09;12.70;99.90
52867;DHT22;38739;53.324;6.862;2023-07-22T05:17:35;12.70;99.90
52867;DHT22;38739;53.324;6.862;2023-07-22T05:20:00;12.80;99.90
52867;DHT22;38739;53.324;6.862;2023-07-22T05:22:26;12.80;99.90
52867;DHT22;38739;53.324;6.862;2023-07-22T05:24:52;12.90;99.90
52867;DHT22;38739;53.324;6.862;2023-07-22T05:27:18;13.00;99.90
52867;DHT22;38739;53.324;6.862;2023-07-22T05:29:43;13.00;99.90
52867;DHT22;38739;53.324;6.862;2023-07-22T05:32:10;13.10;99.90
52867;DHT22;38739;53.324;6.862;2023-07-22T05:34:36;13.10;99.90
52867;DHT22;38739;53.324;6.862;2023-07-22T05:37:02;13.10;99.90
52867;DHT22;38739;53.324;6.862;2023-07-22T05:39:28;13.10;99.90
52867;DHT22;38739;53.324;6.862;2023-07-22T05:41:53;13.10;99.90
52867;DHT22;38739;53.324;6.862;2023-07-22T05:44:19;13.20;99.90
52867;DHT22;38739;53.324;6.862;2023-07-22T05:46:45;13.20;99.90
52867;DHT22;38739;53.324;6.862;2023-07-22T05:49:10;13.20;99.90
52867;DHT22;38739;53.324;6.862;2023-07-22T05:51:36;13.20;99.90
52867;DHT22;38739;53.324;6.862;2023-07-22T05:54:02;13.30;99.90
52867;DHT22;38739;53.324;6.862;2023-07-22T05:56:28;13.30;99.90
52867;DHT22;38739;53.324;6.862;2023-07-22T05:58:54;13.30;99.90
52867;DHT22;38739;53.324;6.862;2023-07-22T06:01:20;13.40;99.90
52867;DHT22;38739;53.324;6.862;2023-07-22T06:03:46;13.50;99.90
52867;DHT22;38739;53.324;6.862;2023-07-22T06:06:11;13.50;99.90
52867;DHT22;38739;53.324;6.862;2023-07-22T06:08:37;13.60;99.90
52867;DHT22;38739;53.324;6.862;2023-07-22T06:11:03;13.60;99.90
52867;DHT22;38739;53.324;6.862;2023-07-22T06:13:28;13.70;99.90
52867;DHT22;38739;53.324;6.862;2023-07-22T06:15:54;13.80;99.90
52867;DHT22;38739;53.324;6.862;2023-07-22T06:18:20;13.90;99.90
52867;DHT22;38739;53.324;6.862;2023-07-22T06:20:46;13.90;99.90
52867;DHT22;38739;53.324;6.862;2023-07-22T06:23:11;14.00;99.90
52867;DHT22;38739;53.324;6.862;2023-07-22T06:25:37;14.10;99.90
52867;DHT22;38739;53.324;6.862;2023-07-22T06:28:04;14.20;99.90
52867;DHT22;38739;53.324;6.862;2023-07-22T06:30:29;14.30;99.90
52867;DHT22;38739;53.324;6.862;2023-07-22T06:32:55;14.40;99.90
52867;DHT22;38739;53.324;6.862;2023-07-22T06:35:21;14.50;99.90
52867;DHT22;38739;53.324;6.862;2023-07-22T06:37:47;14.60;99.90
52867;DHT22;38739;53.324;6.862;2023-07-22T06:40:12;14.70;99.90
52867;DHT22;38739;53.324;6.862;2023-07-22T06:42:38;14.80;99.90
52867;DHT22;38739;53.324;6.862;2023-07-22T06:45:04;14.90;99.90
52867;DHT22;38739;53.324;6.862;2023-07-22T06:47:30;15.00;99.90
52867;DHT22;38739;53.324;6.862;2023-07-22T06:49:57;15.10;99.90
52867;DHT22;38739;53.324;6.862;2023-07-22T06:52:23;15.20;99.90
52867;DHT22;38739;53.324;6.862;2023-07-22T06:54:49;15.30;99.90
52867;DHT22;38739;53.324;6.862;2023-07-22T06:57:15;15.50;99.90
52867;DHT22;38739;53.324;6.862;2023-07-22T06:59:40;15.70;99.90
52867;DHT22;38739;53.324;6.862;2023-07-22T07:02:06;15.80;99.90
52867;DHT22;38739;53.324;6.862;2023-07-22T07:04:32;15.90;99.90
52867;DHT22;38739;53.324;6.862;2023-07-22T07:06:58;15.90;99.90
52867;DHT22;38739;53.324;6.862;2023-07-22T07:09:24;15.90;99.90
52867;DHT22;38739;53.324;6.862;2023-07-22T07:11:51;16.00;99.90
52867;DHT22;38739;53.324;6.862;2023-07-22T07:14:17;16.10;99.90
52867;DHT22;38739;53.324;6.862;2023-07-22T07:16:43;16.30;99.90
52867;DHT22;38739;53.324;6.862;2023-07-22T07:19:09;16.50;99.90
52867;DHT22;38739;53.324;6.862;2023-07-22T07:21:35;16.60;99.90
52867;DHT22;38739;53.324;6.862;2023-07-22T07:24:01;16.70;99.90
52867;DHT22;38739;53.324;6.862;2023-07-22T07:26:27;16.80;99.90
52867;DHT22;38739;53.324;6.862;2023-07-22T07:28:53;17.00;99.90
52867;DHT22;38739;53.324;6.862;2023-07-22T07:31:19;17.10;99.90
52867;DHT22;38739;53.324;6.862;2023-07-22T07:33:45;17.20;99.90
52867;DHT22;38739;53.324;6.862;2023-07-22T07:36:11;17.30;99.90
52867;DHT22;38739;53.324;6.862;2023-07-22T07:38:37;17.30;99.90
52867;DHT22;38739;53.324;6.862;2023-07-22T07:41:04;17.40;99.90
52867;DHT22;38739;53.324;6.862;2023-07-22T07:43:33;17.50;99.90
52867;DHT22;38739;53.324;6.862;2023-07-22T07:46:23;17.60;99.90
52867;DHT22;38739;53.324;6.862;2023-07-22T07:48:58;17.60;99.90
52867;DHT22;38739;53.324;6.862;2023-07-22T07:51:28;17.60;99.90
52867;DHT22;38739;53.324;6.862;2023-07-22T07:53:55;17.60;99.90
52867;DHT22;38739;53.324;6.862;2023-07-22T07:56:22;17.70;99.90
52867;DHT22;38739;53.324;6.862;2023-07-22T07:58:50;17.80;99.90
52867;DHT22;38739;53.324;6.862;2023-07-22T08:01:16;17.80;99.90
52867;DHT22;38739;53.324;6.862;2023-07-22T08:03:43;18.00;99.90
52867;DHT22;38739;53.324;6.862;2023-07-22T08:06:09;18.00;99.90
52867;DHT22;38739;53.324;6.862;2023-07-22T08:08:36;18.10;99.90
52867;DHT22;38739;53.324;6.862;2023-07-22T08:11:04;18.20;99.90
52867;DHT22;38739;53.324;6.862;2023-07-22T08:13:30;18.20;99.90
52867;DHT22;38739;53.324;6.862;2023-07-22T08:16:03;18.20;99.90
52867;DHT22;38739;53.324;6.862;2023-07-22T08:18:30;18.30;99.90
52867;DHT22;38739;53.324;6.862;2023-07-22T08:20:57;18.40;99.90
52867;DHT22;38739;53.324;6.862;2023-07-22T08:23:22;18.60;99.90
52867;DHT22;38739;53.324;6.862;2023-07-22T08:25:48;18.90;99.90
52867;DHT22;38739;53.324;6.862;2023-07-22T08:28:15;19.10;99.90
52867;DHT22;38739;53.324;6.862;2023-07-22T08:30:41;19.10;99.90
52867;DHT22;38739;53.324;6.862;2023-07-22T08:33:08;19.10;99.90
52867;DHT22;38739;53.324;6.862;2023-07-22T08:35:35;19.10;99.90
52867;DHT22;38739;53.324;6.862;2023-07-22T08:38:02;19.20;99.90
52867;DHT22;38739;53.324;6.862;2023-07-22T08:40:33;19.30;99.90
52867;DHT22;38739;53.324;6.862;2023-07-22T08:42:59;19.30;99.90
52867;DHT22;38739;53.324;6.862;2023-07-22T08:45:29;19.30;99.90
52867;DHT22;38739;53.324;6.862;2023-07-22T08:47:58;19.40;99.90
52867;DHT22;38739;53.324;6.862;2023-07-22T08:50:29;19.40;99.90
52867;DHT22;38739;53.324;6.862;2023-07-22T08:52:55;19.40;99.90
52867;DHT22;38739;53.324;6.862;2023-07-22T08:55:22;19.40;99.90
52867;DHT22;38739;53.324;6.862;2023-07-22T08:57:50;19.40;99.90
52867;DHT22;38739;53.324;6.862;2023-07-22T09:00:16;19.40;99.90
52867;DHT22;38739;53.324;6.862;2023-07-22T09:02:42;19.30;99.90
52867;DHT22;38739;53.324;6.862;2023-07-22T09:05:08;19.30;99.90
52867;DHT22;38739;53.324;6.862;2023-07-22T09:07:37;19.20;99.90
52867;DHT22;38739;53.324;6.862;2023-07-22T09:10:08;19.10;99.90
52867;DHT22;38739;53.324;6.862;2023-07-22T09:12:35;19.00;99.90
52867;DHT22;38739;53.324;6.862;2023-07-22T09:15:12;19.00;99.90
52867;DHT22;38739;53.324;6.862;2023-07-22T09:17:39;19.00;99.90
52867;DHT22;38739;53.324;6.862;2023-07-22T09:20:12;19.10;99.90
52867;DHT22;38739;53.324;6.862;2023-07-22T09:22:52;19.20;99.90
52867;DHT22;38739;53.324;6.862;2023-07-22T09:25:18;19.40;99.90
52867;DHT22;38739;53.324;6.862;2023-07-22T09:27:46;19.80;99.90
52867;DHT22;38739;53.324;6.862;2023-07-22T09:30:28;20.10;99.90
52867;DHT22;38739;53.324;6.862;2023-07-22T09:32:59;20.30;99.90
52867;DHT22;38739;53.324;6.862;2023-07-22T09:35:27;20.40;99.90
52867;DHT22;38739;53.324;6.862;2023-07-22T09:37:54;20.40;99.90
52867;DHT22;38739;53.324;6.862;2023-07-22T09:40:22;20.20;99.90
52867;DHT22;38739;53.324;6.862;2023-07-22T09:42:51;20.00;99.90
52867;DHT22;38739;53.324;6.862;2023-07-22T09:45:17;19.80;99.90
52867;DHT22;38739;53.324;6.862;2023-07-22T09:47:48;19.50;99.90
52867;DHT22;38739;53.324;6.862;2023-07-22T09:50:19;19.30;99.90
52867;DHT22;38739;53.324;6.862;2023-07-22T09:52:47;19.10;99.90
52867;DHT22;38739;53.324;6.862;2023-07-22T09:55:21;18.80;99.90
52867;DHT22;38739;53.324;6.862;2023-07-22T09:57:50;18.60;99.90
52867;DHT22;38739;53.324;6.862;2023-07-22T10:00:17;18.50;99.90
52867;DHT22;38739;53.324;6.862;2023-07-22T10:02:48;18.40;99.90
52867;DHT22;38739;53.324;6.862;2023-07-22T10:05:17;18.30;99.90
52867;DHT22;38739;53.324;6.862;2023-07-22T10:07:54;18.20;99.90
52867;DHT22;38739;53.324;6.862;2023-07-22T10:10:24;18.10;99.90
52867;DHT22;38739;53.324;6.862;2023-07-22T10:12:51;18.00;99.90
52867;DHT22;38739;53.324;6.862;2023-07-22T10:15:17;17.90;99.90
52867;DHT22;38739;53.324;6.862;2023-07-22T10:17:45;17.80;99.90
52867;DHT22;38739;53.324;6.862;2023-07-22T10:20:13;17.70;99.90
52867;DHT22;38739;53.324;6.862;2023-07-22T10:22:46;17.60;99.90
52867;DHT22;38739;53.324;6.862;2023-07-22T10:25:14;17.60;99.90
52867;DHT22;38739;53.324;6.862;2023-07-22T10:27:40;17.60;99.90
52867;DHT22;38739;53.324;6.862;2023-07-22T10:30:14;17.60;99.90
52867;DHT22;38739;53.324;6.862;2023-07-22T10:32:42;17.60;99.90
52867;DHT22;38739;53.324;6.862;2023-07-22T10:38:08;17.60;99.90
52867;DHT22;38739;53.324;6.862;2023-07-22T10:40:54;17.60;99.90
52867;DHT22;38739;53.324;6.862;2023-07-22T10:43:56;17.60;99.90
52867;DHT22;38739;53.324;6.862;2023-07-22T10:46:35;17.60;99.90
52867;DHT22;38739;53.324;6.862;2023-07-22T10:49:11;17.60;99.90
52867;DHT22;38739;53.324;6.862;2023-07-22T10:51:45;17.60;99.90
52867;DHT22;38739;53.324;6.862;2023-07-22T10:54:13;17.60;99.90
52867;DHT22;38739;53.324;6.862;2023-07-22T10:56:46;17.60;99.90
52867;DHT22;38739;53.324;6.862;2023-07-22T10:59:12;17.60;99.90
52867;DHT22;38739;53.324;6.862;2023-07-22T11:01:44;17.60;99.90
52867;DHT22;38739;53.324;6.862;2023-07-22T11:14:29;17.60;99.90
52867;DHT22;38739;53.324;6.862;2023-07-22T11:16:57;17.50;99.90
52867;DHT22;38739;53.324;6.862;2023-07-22T11:19:24;17.50;99.90
52867;DHT22;38739;53.324;6.862;2023-07-22T11:21:51;17.50;99.90
52867;DHT22;38739;53.324;6.862;2023-07-22T11:24:18;17.40;99.90
52867;DHT22;38739;53.324;6.862;2023-07-22T11:26:48;17.40;99.90
52867;DHT22;38739;53.324;6.862;2023-07-22T11:29:14;17.40;99.90
52867;DHT22;38739;53.324;6.862;2023-07-22T11:31:48;17.40;99.90
52867;DHT22;38739;53.324;6.862;2023-07-22T11:34:24;17.30;99.90
52867;DHT22;38739;53.324;6.862;2023-07-22T11:36:51;17.30;99.90
52867;DHT22;38739;53.324;6.862;2023-07-22T11:39:19;17.20;99.90
52867;DHT22;38739;53.324;6.862;2023-07-22T11:41:47;17.20;99.90
52867;DHT22;38739;53.324;6.862;2023-07-22T11:44:15;17.20;99.90
52867;DHT22;38739;53.324;6.862;2023-07-22T11:47:01;17.10;99.90
52867;DHT22;38739;53.324;6.862;2023-07-22T11:49:34;17.10;99.90
52867;DHT22;38739;53.324;6.862;2023-07-22T11:52:02;17.00;99.90
52867;DHT22;38739;53.324;6.862;2023-07-22T11:54:29;17.00;99.90
52867;DHT22;38739;53.324;6.862;2023-07-22T11:56:56;17.00;99.90
52867;DHT22;38739;53.324;6.862;2023-07-22T11:59:35;17.00;99.90
52867;DHT22;38739;53.324;6.862;2023-07-22T12:02:03;17.10;99.90
52867;DHT22;38739;53.324;6.862;2023-07-22T12:04:34;17.10;99.90
52867;DHT22;38739;53.324;6.862;2023-07-22T12:07:01;17.10;99.90
52867;DHT22;38739;53.324;6.862;2023-07-22T12:09:27;17.10;99.90
52867;DHT22;38739;53.324;6.862;2023-07-22T12:11:57;17.10;99.90
52867;DHT22;38739;53.324;6.862;2023-07-22T12:14:24;17.10;99.90
52867;DHT22;38739;53.324;6.862;2023-07-22T12:16:55;17.10;99.90
52867;DHT22;38739;53.324;6.862;2023-07-22T12:19:22;17.20;99.90
52867;DHT22;38739;53.324;6.862;2023-07-22T12:21:47;17.20;99.90
52867;DHT22;38739;53.324;6.862;2023-07-22T12:24:14;17.30;99.90
52867;DHT22;38739;53.324;6.862;2023-07-22T12:26:40;17.30;99.90
52867;DHT22;38739;53.324;6.862;2023-07-22T12:29:07;17.30;99.90
52867;DHT22;38739;53.324;6.862;2023-07-22T12:31:34;17.30;99.90
52867;DHT22;38739;53.324;6.862;2023-07-22T12:33:59;17.40;99.90
52867;DHT22;38739;53.324;6.862;2023-07-22T12:36:25;17.40;99.90
52867;DHT22;38739;53.324;6.862;2023-07-22T12:38:51;17.50;99.90
52867;DHT22;38739;53.324;6.862;2023-07-22T12:41:17;17.50;99.90
52867;DHT22;38739;53.324;6.862;2023-07-22T12:43:42;17.50;99.90
52867;DHT22;38739;53.324;6.862;2023-07-22T12:46:08;17.40;99.90
52867;DHT22;38739;53.324;6.862;2023-07-22T12:48:34;17.30;99.90
52867;DHT22;38739;53.324;6.862;2023-07-22T12:51:00;17.30;99.90
52867;DHT22;38739;53.324;6.862;2023-07-22T12:53:26;17.20;99.90
52867;DHT22;38739;53.324;6.862;2023-07-22T12:55:52;17.10;99.90
52867;DHT22;38739;53.324;6.862;2023-07-22T12:58:17;17.10;99.90
52867;DHT22;38739;53.324;6.862;2023-07-22T13:00:43;17.00;99.90
52867;DHT22;38739;53.324;6.862;2023-07-22T13:03:09;16.90;99.90
52867;DHT22;38739;53.324;6.862;2023-07-22T13:05:35;16.80;99.90
52867;DHT22;38739;53.324;6.862;2023-07-22T13:08:00;16.80;99.90
52867;DHT22;38739;53.324;6.862;2023-07-22T13:10:29;16.80;99.90
52867;DHT22;38739;53.324;6.862;2023-07-22T13:12:57;16.80;99.90
52867;DHT22;38739;53.324;6.862;2023-07-22T13:15:23;16.80;99.90
52867;DHT22;38739;53.324;6.862;2023-07-22T13:17:49;16.80;99.90
52867;DHT22;38739;53.324;6.862;2023-07-22T13:20:15;16.80;99.90
52867;DHT22;38739;53.324;6.862;2023-07-22T13:22:41;16.80;99.90
52867;DHT22;38739;53.324;6.862;2023-07-22T13:25:07;16.80;99.90
52867;DHT22;38739;53.324;6.862;2023-07-22T13:27:34;16.80;99.90
52867;DHT22;38739;53.324;6.862;2023-07-22T13:30:00;17.00;99.90
52867;DHT22;38739;53.324;6.862;2023-07-22T13:32:27;17.00;99.90
52867;DHT22;38739;53.324;6.862;2023-07-22T13:34:52;17.30;99.90
52867;DHT22;38739;53.324;6.862;2023-07-22T13:37:18;17.30;99.90
52867;DHT22;38739;53.324;6.862;2023-07-22T13:39:44;17.50;99.90
52867;DHT22;38739;53.324;6.862;2023-07-22T13:42:10;17.60;99.90
52867;DHT22;38739;53.324;6.862;2023-07-22T13:44:36;17.80;99.90
52867;DHT22;38739;53.324;6.862;2023-07-22T13:47:01;18.00;99.90
52867;DHT22;38739;53.324;6.862;2023-07-22T13:49:27;18.10;99.90
52867;DHT22;38739;53.324;6.862;2023-07-22T13:51:53;18.20;99.90
52867;DHT22;38739;53.324;6.862;2023-07-22T13:54:18;18.20;99.90
52867;DHT22;38739;53.324;6.862;2023-07-22T13:56:45;18.30;99.90
52867;DHT22;38739;53.324;6.862;2023-07-22T13:59:13;18.40;99.90
52867;DHT22;38739;53.324;6.862;2023-07-22T14:01:39;18.40;99.90
52867;DHT22;38739;53.324;6.862;2023-07-22T14:04:05;18.60;99.90
52867;DHT22;38739;53.324;6.862;2023-07-22T14:06:30;18.80;99.90
52867;DHT22;38739;53.324;6.862;2023-07-22T14:08:58;19.10;99.90
52867;DHT22;38739;53.324;6.862;2023-07-22T14:11:24;19.10;99.90
52867;DHT22;38739;53.324;6.862;2023-07-22T14:13:49;19.10;99.90
52867;DHT22;38739;53.324;6.862;2023-07-22T14:16:18;19.00;99.90
52867;DHT22;38739;53.324;6.862;2023-07-22T14:18:43;18.90;99.90
52867;DHT22;38739;53.324;6.862;2023-07-22T14:21:09;18.70;99.90
52867;DHT22;38739;53.324;6.862;2023-07-22T14:23:37;18.60;99.90
52867;DHT22;38739;53.324;6.862;2023-07-22T14:26:02;18.30;99.90
52867;DHT22;38739;53.324;6.862;2023-07-22T14:28:28;18.10;99.90
52867;DHT22;38739;53.324;6.862;2023-07-22T14:30:56;18.00;99.90
52867;DHT22;38739;53.324;6.862;2023-07-22T14:33:22;17.80;99.90
52867;DHT22;38739;53.324;6.862;2023-07-22T14:35:47;17.70;99.90
52867;DHT22;38739;53.324;6.862;2023-07-22T14:38:16;17.70;99.90
52867;DHT22;38739;53.324;6.862;2023-07-22T14:40:43;17.60;99.90
52867;DHT22;38739;53.324;6.862;2023-07-22T14:43:12;17.50;99.90
52867;DHT22;38739;53.324;6.862;2023-07-22T14:45:38;17.40;99.90
52867;DHT22;38739;53.324;6.862;2023-07-22T14:48:04;17.40;99.90
52867;DHT22;38739;53.324;6.862;2023-07-22T14:50:33;17.40;99.90
52867;DHT22;38739;53.324;6.862;2023-07-22T14:52:59;17.30;99.90
52867;DHT22;38739;53.324;6.862;2023-07-22T14:55:25;17.30;99.90
52867;DHT22;38739;53.324;6.862;2023-07-22T14:57:51;17.20;99.90
52867;DHT22;38739;53.324;6.862;2023-07-22T15:00:17;17.10;99.90
52867;DHT22;38739;53.324;6.862;2023-07-22T15:02:43;17.00;99.90
52867;DHT22;38739;53.324;6.862;2023-07-22T15:05:09;16.90;99.90
52867;DHT22;38739;53.324;6.862;2023-07-22T15:07:35;16.70;99.90
52867;DHT22;38739;53.324;6.862;2023-07-22T15:10:01;16.60;99.90
52867;DHT22;38739;53.324;6.862;2023-07-22T15:12:27;16.40;99.90
52867;DHT22;38739;53.324;6.862;2023-07-22T15:14:53;16.30;99.90
52867;DHT22;38739;53.324;6.862;2023-07-22T15:17:19;16.20;99.90
52867;DHT22;38739;53.324;6.862;2023-07-22T15:19:44;16.10;99.90
52867;DHT22;38739;53.324;6.862;2023-07-22T15:22:10;16.00;99.90
52867;DHT22;38739;53.324;6.862;2023-07-22T15:24:36;16.00;99.90
52867;DHT22;38739;53.324;6.862;2023-07-22T15:27:01;15.90;99.90
52867;DHT22;38739;53.324;6.862;2023-07-22T15:29:27;16.00;99.90
52867;DHT22;38739;53.324;6.862;2023-07-22T15:31:53;16.10;99.90
52867;DHT22;38739;53.324;6.862;2023-07-22T15:34:18;16.20;99.90
52867;DHT22;38739;53.324;6.862;2023-07-22T15:36:44;16.30;99.90
52867;DHT22;38739;53.324;6.862;2023-07-22T15:39:10;16.40;99.90
52867;DHT22;38739;53.324;6.862;2023-07-22T15:41:35;16.50;99.90
52867;DHT22;38739;53.324;6.862;2023-07-22T15:44:01;16.50;99.90